sensor_id;sensor_type;location;lat;lon;timestamp;pressure;altitude;pressure_sealevel;temperature;humidity
44663;BME280;30381;52.754;18.258;2023-03-16T00:00:49;101003.39;;;-1.93;100.00
44663;BME280;30381;52.754;18.258;2023-03-16T00:03:35;101008.73;;;-1.90;100.00
44663;BME280;30381;52.754;18.258;2023-03-16T00:06:01;101010.45;;;-1.88;100.00
44663;BME280;30381;52.754;18.258;2023-03-16T00:08:28;101012.74;;;-1.86;100.00
44663;BME280;30381;52.754;18.258;2023-03-16T00:10:54;101012.86;;;-1.85;100.00
44663;BME280;30381;52.754;18.258;2023-03-16T00:13:22;101013.38;;;-1.85;100.00
44663;BME280;30381;52.754;18.258;2023-03-16T00:15:57;101015.51;;;-1.85;100.00
44663;BME280;30381;52.754;18.258;2023-03-16T00:18:34;101015.95;;;-1.88;100.00
44663;BME280;30381;52.754;18.258;2023-03-16T00:21:08;101015.23;;;-1.92;100.00
44663;BME280;30381;52.754;18.258;2023-03-16T00:23:34;101016.40;;;-1.92;100.00
44663;BME280;30381;52.754;18.258;2023-03-16T00:26:04;101019.95;;;-1.95;100.00
44663;BME280;30381;52.754;18.258;2023-03-16T00:28:31;101025.59;;;-1.94;100.00
44663;BME280;30381;52.754;18.258;2023-03-16T00:31:05;101026.73;;;-1.95;100.00
44663;BME280;30381;52.754;18.258;2023-03-16T00:33:56;101029.64;;;-2.00;100.00
44663;BME280;30381;52.754;18.258;2023-03-16T00:36:25;101026.06;;;-2.05;100.00
44663;BME280;30381;52.754;18.258;2023-03-16T00:38:51;101022.36;;;-2.09;100.00
44663;BME280;30381;52.754;18.258;2023-03-16T00:41:18;101025.77;;;-2.13;100.00
44663;BME280;30381;52.754;18.258;2023-03-16T00:43:44;101021.78;;;-2.16;100.00
44663;BME280;30381;52.754;18.258;2023-03-16T00:46:14;101023.23;;;-2.18;100.00
44663;BME280;30381;52.754;18.258;2023-03-16T00:48:43;101022.48;;;-2.18;100.00
44663;BME280;30381;52.754;18.258;2023-03-16T00:51:12;101020.39;;;-2.16;100.00
44663;BME280;30381;52.754;18.258;2023-03-16T00:53:41;101021.65;;;-2.12;100.00
44663;BME280;30381;52.754;18.258;2023-03-16T00:56:19;101023.08;;;-2.10;100.00
44663;BME280;30381;52.754;18.258;2023-03-16T00:58:45;101024.98;;;-2.10;100.00
44663;BME280;30381;52.754;18.258;2023-03-16T01:01:17;101026.98;;;-2.11;100.00
44663;BME280;30381;52.754;18.258;2023-03-16T01:04:11;101028.12;;;-2.12;100.00
44663;BME280;30381;52.754;18.258;2023-03-16T01:06:39;101028.73;;;-2.12;100.00
44663;BME280;30381;52.754;18.258;2023-03-16T01:09:06;101026.96;;;-2.16;100.00
44663;BME280;30381;52.754;18.258;2023-03-16T01:11:41;101029.13;;;-2.21;100.00
44663;BME280;30381;52.754;18.258;2023-03-16T01:14:09;101031.36;;;-2.24;100.00
44663;BME280;30381;52.754;18.258;2023-03-16T01:16:35;101032.20;;;-2.29;100.00
44663;BME280;30381;52.754;18.258;2023-03-16T01:19:04;101029.44;;;-2.33;100.00
44663;BME280;30381;52.754;18.258;2023-03-16T01:21:40;101033.38;;;-2.36;100.00
44663;BME280;30381;52.754;18.258;2023-03-16T01:24:13;101035.66;;;-2.38;100.00
44663;BME280;30381;52.754;18.258;2023-03-16T01:26:39;101037.09;;;-2.39;100.00
44663;BME280;30381;52.754;18.258;2023-03-16T01:29:06;101039.60;;;-2.40;100.00
44663;BME280;30381;52.754;18.258;2023-03-16T01:31:36;101039.40;;;-2.42;100.00
44663;BME280;30381;52.754;18.258;2023-03-16T01:34:02;101039.93;;;-2.42;100.00
44663;BME280;30381;52.754;18.258;2023-03-16T01:36:29;101040.88;;;-2.40;100.00
44663;BME280;30381;52.754;18.258;2023-03-16T01:38:57;101041.46;;;-2.35;100.00
44663;BME280;30381;52.754;18.258;2023-03-16T01:41:39;101039.35;;;-2.26;100.00
44663;BME280;30381;52.754;18.258;2023-03-16T01:44:18;101042.70;;;-2.16;100.00
44663;BME280;30381;52.754;18.258;2023-03-16T01:46:47;101049.71;;;-2.10;100.00
44663;BME280;30381;52.754;18.258;2023-03-16T01:49:32;101048.58;;;-2.06;100.00
44663;BME280;30381;52.754;18.258;2023-03-16T01:52:20;101049.94;;;-2.01;100.00
44663;BME280;30381;52.754;18.258;2023-03-16T01:55:01;101046.65;;;-2.00;100.00
44663;BME280;30381;52.754;18.258;2023-03-16T01:57:31;101045.56;;;-1.98;100.00
44663;BME280;30381;52.754;18.258;2023-03-16T02:00:14;101046.06;;;-1.98;100.00
44663;BME280;30381;52.754;18.258;2023-03-16T02:02:47;101047.27;;;-1.98;100.00
44663;BME280;30381;52.754;18.258;2023-03-16T02:11:05;101058.13;;;-1.98;100.00
44663;BME280;30381;52.754;18.258;2023-03-16T02:13:39;101054.02;;;-2.00;100.00
44663;BME280;30381;52.754;18.258;2023-03-16T02:16:57;101056.91;;;-2.00;100.00
44663;BME280;30381;52.754;18.258;2023-03-16T02:24:21;101064.90;;;-2.04;100.00
44663;BME280;30381;52.754;18.258;2023-03-16T02:31:19;101072.69;;;-2.04;100.00
44663;BME280;30381;52.754;18.258;2023-03-16T02:34:46;101075.64;;;-2.06;100.00
44663;BME280;30381;52.754;18.258;2023-03-16T02:37:47;101082.87;;;-2.06;100.00
44663;BME280;30381;52.754;18.258;2023-03-16T02:49:33;101084.87;;;-2.07;100.00
44663;BME280;30381;52.754;18.258;2023-03-16T02:52:34;101088.67;;;-2.09;100.00
44663;BME280;30381;52.754;18.258;2023-03-16T02:55:40;101083.24;;;-2.10;100.00
44663;BME280;30381;52.754;18.258;2023-03-16T03:01:06;101083.36;;;-2.11;100.00
44663;BME280;30381;52.754;18.258;2023-03-16T03:04:28;101086.02;;;-2.13;100.00
44663;BME280;30381;52.754;18.258;2023-03-16T03:07:50;101088.69;;;-2.17;100.00
44663;BME280;30381;52.754;18.258;2023-03-16T03:17:20;101091.98;;;-2.19;100.00
44663;BME280;30381;52.754;18.258;2023-03-16T03:20:13;101097.63;;;-2.19;100.00
44663;BME280;30381;52.754;18.258;2023-03-16T03:23:01;101090.15;;;-2.15;100.00
44663;BME280;30381;52.754;18.258;2023-03-16T03:25:39;101096.58;;;-2.17;100.00
44663;BME280;30381;52.754;18.258;2023-03-16T03:28:26;101102.69;;;-2.18;100.00
44663;BME280;30381;52.754;18.258;2023-03-16T03:31:32;101100.97;;;-2.20;100.00
44663;BME280;30381;52.754;18.258;2023-03-16T03:44:02;101097.69;;;-2.27;100.00
44663;BME280;30381;52.754;18.258;2023-03-16T03:50:14;101103.74;;;-2.24;100.00
44663;BME280;30381;52.754;18.258;2023-03-16T03:53:07;101106.35;;;-2.17;100.00
44663;BME280;30381;52.754;18.258;2023-03-16T03:55:56;101110.98;;;-2.12;100.00
44663;BME280;30381;52.754;18.258;2023-03-16T03:59:05;101106.21;;;-2.04;100.00
44663;BME280;30381;52.754;18.258;2023-03-16T04:02:44;101102.52;;;-1.99;100.00
44663;BME280;30381;52.754;18.258;2023-03-16T04:06:00;101104.95;;;-1.95;100.00
44663;BME280;30381;52.754;18.258;2023-03-16T04:09:26;101105.12;;;-1.91;100.00
44663;BME280;30381;52.754;18.258;2023-03-16T04:12:13;101101.84;;;-1.86;100.00
44663;BME280;30381;52.754;18.258;2023-03-16T04:15:23;101105.27;;;-1.81;100.00
44663;BME280;30381;52.754;18.258;2023-03-16T04:18:13;101102.42;;;-1.76;100.00
44663;BME280;30381;52.754;18.258;2023-03-16T04:21:22;101104.20;;;-1.72;100.00
44663;BME280;30381;52.754;18.258;2023-03-16T04:25:36;101101.52;;;-1.69;100.00
44663;BME280;30381;52.754;18.258;2023-03-16T04:32:26;101110.61;;;-1.69;100.00
44663;BME280;30381;52.754;18.258;2023-03-16T04:35:41;101109.17;;;-1.68;100.00
44663;BME280;30381;52.754;18.258;2023-03-16T04:39:14;101109.55;;;-1.67;100.00
44663;BME280;30381;52.754;18.258;2023-03-16T04:42:45;101114.02;;;-1.64;100.00
44663;BME280;30381;52.754;18.258;2023-03-16T04:46:51;101115.91;;;-1.61;100.00
44663;BME280;30381;52.754;18.258;2023-03-16T04:50:05;101115.43;;;-1.60;100.00
44663;BME280;30381;52.754;18.258;2023-03-16T04:53:50;101121.98;;;-1.60;100.00
44663;BME280;30381;52.754;18.258;2023-03-16T04:57:13;101125.19;;;-1.64;100.00
44663;BME280;30381;52.754;18.258;2023-03-16T05:00:34;101125.50;;;-1.67;100.00
44663;BME280;30381;52.754;18.258;2023-03-16T05:03:52;101130.73;;;-1.70;100.00
44663;BME280;30381;52.754;18.258;2023-03-16T05:07:07;101134.48;;;-1.72;100.00
44663;BME280;30381;52.754;18.258;2023-03-16T05:09:53;101135.70;;;-1.72;100.00
44663;BME280;30381;52.754;18.258;2023-03-16T05:12:46;101132.46;;;-1.72;100.00
44663;BME280;30381;52.754;18.258;2023-03-16T05:15:15;101131.11;;;-1.70;100.00
44663;BME280;30381;52.754;18.258;2023-03-16T05:17:47;101133.71;;;-1.66;100.00
44663;BME280;30381;52.754;18.258;2023-03-16T05:20:15;101134.27;;;-1.63;100.00
44663;BME280;30381;52.754;18.258;2023-03-16T05:23:02;101133.44;;;-1.60;100.00
44663;BME280;30381;52.754;18.258;2023-03-16T05:25:29;101129.50;;;-1.54;100.00
44663;BME280;30381;52.754;18.258;2023-03-16T05:28:22;101125.36;;;-1.47;100.00
44663;BME280;30381;52.754;18.258;2023-03-16T05:31:08;101124.21;;;-1.41;100.00
44663;BME280;30381;52.754;18.258;2023-03-16T05:33:54;101125.70;;;-1.33;100.00
44663;BME280;30381;52.754;18.258;2023-03-16T05:36:26;101133.17;;;-1.24;100.00
44663;BME280;30381;52.754;18.258;2023-03-16T05:39:31;101137.25;;;-1.08;100.00
44663;BME280;30381;52.754;18.258;2023-03-16T05:42:26;101135.84;;;-0.82;100.00
44663;BME280;30381;52.754;18.258;2023-03-16T05:45:07;101136.96;;;-0.65;100.00
44663;BME280;30381;52.754;18.258;2023-03-16T05:47:57;101137.13;;;-0.42;100.00
44663;BME280;30381;52.754;18.258;2023-03-16T05:50:55;101139.88;;;-0.09;100.00
44663;BME280;30381;52.754;18.258;2023-03-16T05:53:38;101140.59;;;0.15;100.00
44663;BME280;30381;52.754;18.258;2023-03-16T05:56:31;101141.20;;;0.36;100.00
44663;BME280;30381;52.754;18.258;2023-03-16T05:59:07;101143.16;;;0.54;100.00
44663;BME280;30381;52.754;18.258;2023-03-16T06:01:33;101146.00;;;0.69;100.00
44663;BME280;30381;52.754;18.258;2023-03-16T06:04:09;101145.19;;;0.88;100.00
44663;BME280;30381;52.754;18.258;2023-03-16T06:06:54;101144.52;;;1.08;100.00
44663;BME280;30381;52.754;18.258;2023-03-16T06:09:21;101153.38;;;1.28;100.00
44663;BME280;30381;52.754;18.258;2023-03-16T06:11:56;101158.05;;;1.48;100.00
44663;BME280;30381;52.754;18.258;2023-03-16T06:14:36;101156.41;;;1.64;100.00
44663;BME280;30381;52.754;18.258;2023-03-16T06:21:56;101157.73;;;2.20;100.00
44663;BME280;30381;52.754;18.258;2023-03-16T06:24:24;101149.40;;;2.35;100.00
44663;BME280;30381;52.754;18.258;2023-03-16T06:32:02;101161.70;;;2.79;100.00
44663;BME280;30381;52.754;18.258;2023-03-16T06:37:03;101160.64;;;2.91;100.00
44663;BME280;30381;52.754;18.258;2023-03-16T06:49:23;101177.19;;;3.64;100.00
44663;BME280;30381;52.754;18.258;2023-03-16T06:51:50;101176.19;;;3.92;100.00
44663;BME280;30381;52.754;18.258;2023-03-16T06:54:18;101179.48;;;4.14;100.00
44663;BME280;30381;52.754;18.258;2023-03-16T06:56:53;101180.79;;;4.32;100.00
44663;BME280;30381;52.754;18.258;2023-03-16T07:01:45;101181.71;;;4.58;100.00
44663;BME280;30381;52.754;18.258;2023-03-16T07:06:55;101172.77;;;4.95;100.00
44663;BME280;30381;52.754;18.258;2023-03-16T07:14:58;101179.23;;;5.51;100.00
44663;BME280;30381;52.754;18.258;2023-03-16T07:17:29;101180.43;;;5.66;100.00
44663;BME280;30381;52.754;18.258;2023-03-16T07:34:48;101188.80;;;5.99;100.00
44663;BME280;30381;52.754;18.258;2023-03-16T07:41:12;101189.46;;;6.31;100.00
44663;BME280;30381;52.754;18.258;2023-03-16T07:55:54;101207.29;;;6.41;100.00
44663;BME280;30381;52.754;18.258;2023-03-16T08:19:20;101225.04;;;6.66;100.00
44663;BME280;30381;52.754;18.258;2023-03-16T08:59:02;101252.94;;;5.61;100.00
44663;BME280;30381;52.754;18.258;2023-03-16T09:05:43;101252.91;;;5.45;100.00
44663;BME280;30381;52.754;18.258;2023-03-16T09:09:22;101259.81;;;5.37;100.00
44663;BME280;30381;52.754;18.258;2023-03-16T09:11:52;101260.87;;;5.33;100.00
44663;BME280;30381;52.754;18.258;2023-03-16T09:14:41;101259.73;;;5.38;100.00
44663;BME280;30381;52.754;18.258;2023-03-16T09:17:37;101259.55;;;5.48;100.00
44663;BME280;30381;52.754;18.258;2023-03-16T09:20:51;101261.99;;;5.66;100.00
44663;BME280;30381;52.754;18.258;2023-03-16T09:29:32;101263.91;;;5.84;100.00
44663;BME280;30381;52.754;18.258;2023-03-16T09:32:30;101267.46;;;6.04;100.00
44663;BME280;30381;52.754;18.258;2023-03-16T10:06:32;101278.11;;;5.91;100.00
44663;BME280;30381;52.754;18.258;2023-03-16T10:13:43;101288.17;;;5.32;100.00
44663;BME280;30381;52.754;18.258;2023-03-16T10:39:09;101295.23;;;6.17;100.00
44663;BME280;30381;52.754;18.258;2023-03-16T10:45:01;101299.23;;;6.63;100.00
44663;BME280;30381;52.754;18.258;2023-03-16T10:47:32;101300.71;;;6.74;100.00
44663;BME280;30381;52.754;18.258;2023-03-16T10:51:12;101299.67;;;6.88;100.00
44663;BME280;30381;52.754;18.258;2023-03-16T10:54:59;101302.09;;;7.01;100.00
44663;BME280;30381;52.754;18.258;2023-03-16T11:01:55;101305.39;;;6.71;100.00
44663;BME280;30381;52.754;18.258;2023-03-16T11:13:34;101313.31;;;5.98;100.00
44663;BME280;30381;52.754;18.258;2023-03-16T11:16:46;101309.64;;;5.99;100.00
44663;BME280;30381;52.754;18.258;2023-03-16T11:20:04;101307.52;;;6.27;100.00
44663;BME280;30381;52.754;18.258;2023-03-16T11:26:05;101319.58;;;7.04;100.00
44663;BME280;30381;52.754;18.258;2023-03-16T11:31:53;101314.48;;;7.51;100.00
44663;BME280;30381;52.754;18.258;2023-03-16T12:05:42;101302.16;;;8.40;100.00
44663;BME280;30381;52.754;18.258;2023-03-16T12:09:12;101298.17;;;8.34;100.00
44663;BME280;30381;52.754;18.258;2023-03-16T12:11:15;101302.45;;;8.36;100.00
44663;BME280;30381;52.754;18.258;2023-03-16T12:14:02;101299.94;;;8.48;100.00
44663;BME280;30381;52.754;18.258;2023-03-16T12:16:40;101303.04;;;8.50;100.00
44663;BME280;30381;52.754;18.258;2023-03-16T12:19:33;101307.83;;;8.35;100.00
44663;BME280;30381;52.754;18.258;2023-03-16T12:22:33;101311.14;;;8.11;100.00
44663;BME280;30381;52.754;18.258;2023-03-16T12:25:02;101311.72;;;7.96;100.00
44663;BME280;30381;52.754;18.258;2023-03-16T12:27:32;101314.03;;;7.87;100.00
44663;BME280;30381;52.754;18.258;2023-03-16T12:39:05;101315.83;;;7.97;100.00
44663;BME280;30381;52.754;18.258;2023-03-16T12:42:10;101316.42;;;7.92;100.00
44663;BME280;30381;52.754;18.258;2023-03-16T12:44:55;101321.91;;;7.68;100.00
44663;BME280;30381;52.754;18.258;2023-03-16T12:50:29;101325.82;;;7.46;100.00
44663;BME280;30381;52.754;18.258;2023-03-16T12:52:59;101320.60;;;7.46;100.00
44663;BME280;30381;52.754;18.258;2023-03-16T12:55:43;101322.86;;;7.56;100.00
44663;BME280;30381;52.754;18.258;2023-03-16T12:58:29;101329.92;;;7.72;100.00
44663;BME280;30381;52.754;18.258;2023-03-16T13:01:19;101331.90;;;7.80;100.00
44663;BME280;30381;52.754;18.258;2023-03-16T13:04:05;101324.73;;;8.13;100.00
44663;BME280;30381;52.754;18.258;2023-03-16T13:06:35;101329.58;;;8.45;100.00
44663;BME280;30381;52.754;18.258;2023-03-16T13:09:17;101330.88;;;8.59;100.00
44663;BME280;30381;52.754;18.258;2023-03-16T13:12:02;101334.75;;;8.65;100.00
44663;BME280;30381;52.754;18.258;2023-03-16T13:14:51;101339.48;;;8.45;99.79
44663;BME280;30381;52.754;18.258;2023-03-16T13:18:19;101354.05;;;7.85;99.06
44663;BME280;30381;52.754;18.258;2023-03-16T13:25:13;101358.96;;;7.27;99.01
44663;BME280;30381;52.754;18.258;2023-03-16T13:45:48;101367.72;;;6.41;100.00
44663;BME280;30381;52.754;18.258;2023-03-16T13:53:52;101362.88;;;6.74;100.00
44663;BME280;30381;52.754;18.258;2023-03-16T14:05:33;101368.95;;;7.18;97.30
44663;BME280;30381;52.754;18.258;2023-03-16T14:08:01;101374.57;;;7.10;98.01
44663;BME280;30381;52.754;18.258;2023-03-16T14:10:34;101372.73;;;7.13;99.01
44663;BME280;30381;52.754;18.258;2023-03-16T14:13:50;101367.96;;;7.24;97.53
44663;BME280;30381;52.754;18.258;2023-03-16T14:17:09;101367.73;;;7.28;97.59
44663;BME280;30381;52.754;18.258;2023-03-16T14:20:33;101368.84;;;7.24;95.87
44663;BME280;30381;52.754;18.258;2023-03-16T14:26:47;101371.04;;;7.00;95.51
44663;BME280;30381;52.754;18.258;2023-03-16T14:41:41;101363.02;;;6.37;96.77
44663;BME280;30381;52.754;18.258;2023-03-16T14:45:31;101365.73;;;6.37;97.35
44663;BME280;30381;52.754;18.258;2023-03-16T14:55:36;101369.00;;;6.31;95.94
44663;BME280;30381;52.754;18.258;2023-03-16T15:23:01;101370.18;;;5.63;98.54
44663;BME280;30381;52.754;18.258;2023-03-16T15:28:32;101365.14;;;5.56;98.56
44663;BME280;30381;52.754;18.258;2023-03-16T15:54:27;101374.87;;;5.17;98.30
44663;BME280;30381;52.754;18.258;2023-03-16T16:05:34;101392.64;;;4.94;98.29
44663;BME280;30381;52.754;18.258;2023-03-16T16:08:09;101394.20;;;4.87;98.23
44663;BME280;30381;52.754;18.258;2023-03-16T16:10:38;101396.64;;;4.82;98.56
44663;BME280;30381;52.754;18.258;2023-03-16T16:18:46;101400.52;;;4.61;98.65
44663;BME280;30381;52.754;18.258;2023-03-16T16:21:50;101400.61;;;4.52;98.71
44663;BME280;30381;52.754;18.258;2023-03-16T16:34:00;101417.43;;;4.07;99.28
44663;BME280;30381;52.754;18.258;2023-03-16T16:36:57;101421.72;;;3.98;99.25
44663;BME280;30381;52.754;18.258;2023-03-16T16:39:37;101426.08;;;3.86;99.46
44663;BME280;30381;52.754;18.258;2023-03-16T16:42:27;101427.38;;;3.75;99.43
44663;BME280;30381;52.754;18.258;2023-03-16T16:47:37;101431.40;;;3.56;99.61
44663;BME280;30381;52.754;18.258;2023-03-16T16:53:18;101431.11;;;3.38;99.74
44663;BME280;30381;52.754;18.258;2023-03-16T16:56:09;101430.55;;;3.26;99.81
44663;BME280;30381;52.754;18.258;2023-03-16T17:01:58;101433.84;;;3.04;99.86
44663;BME280;30381;52.754;18.258;2023-03-16T17:07:51;101438.27;;;2.80;100.00
44663;BME280;30381;52.754;18.258;2023-03-16T17:11:04;101436.81;;;2.69;100.00
44663;BME280;30381;52.754;18.258;2023-03-16T17:22:48;101456.47;;;2.28;100.00
44663;BME280;30381;52.754;18.258;2023-03-16T17:33:42;101463.10;;;1.94;100.00
44663;BME280;30381;52.754;18.258;2023-03-16T17:42:29;101463.83;;;1.73;100.00
44663;BME280;30381;52.754;18.258;2023-03-16T18:11:32;101481.23;;;0.99;100.00
44663;BME280;30381;52.754;18.258;2023-03-16T18:14:59;101478.81;;;0.90;100.00
44663;BME280;30381;52.754;18.258;2023-03-16T18:18:17;101478.77;;;0.81;100.00
44663;BME280;30381;52.754;18.258;2023-03-16T18:20:59;101483.80;;;0.72;100.00
44663;BME280;30381;52.754;18.258;2023-03-16T18:24:32;101491.29;;;0.62;100.00
44663;BME280;30381;52.754;18.258;2023-03-16T18:27:37;101493.01;;;0.56;100.00
44663;BME280;30381;52.754;18.258;2023-03-16T18:31:02;101488.34;;;0.45;100.00
44663;BME280;30381;52.754;18.258;2023-03-16T18:50:41;101511.38;;;0.02;100.00
44663;BME280;30381;52.754;18.258;2023-03-16T18:53:22;101512.11;;;-0.02;100.00
44663;BME280;30381;52.754;18.258;2023-03-16T18:55:51;101509.92;;;-0.05;100.00
44663;BME280;30381;52.754;18.258;2023-03-16T18:58:22;101513.12;;;-0.09;100.00
44663;BME280;30381;52.754;18.258;2023-03-16T19:01:11;101510.52;;;-0.13;100.00
44663;BME280;30381;52.754;18.258;2023-03-16T19:06:22;101514.90;;;-0.22;100.00
44663;BME280;30381;52.754;18.258;2023-03-16T19:09:30;101519.69;;;-0.28;100.00
44663;BME280;30381;52.754;18.258;2023-03-16T19:12:09;101524.72;;;-0.32;100.00
44663;BME280;30381;52.754;18.258;2023-03-16T19:14:56;101524.79;;;-0.39;100.00
44663;BME280;30381;52.754;18.258;2023-03-16T19:18:02;101518.80;;;-0.43;100.00
44663;BME280;30381;52.754;18.258;2023-03-16T19:21:37;101519.27;;;-0.50;100.00
44663;BME280;30381;52.754;18.258;2023-03-16T19:40:28;101531.28;;;-0.94;100.00
44663;BME280;30381;52.754;18.258;2023-03-16T19:43:37;101533.77;;;-0.99;100.00
44663;BME280;30381;52.754;18.258;2023-03-16T19:46:55;101535.36;;;-1.03;100.00
44663;BME280;30381;52.754;18.258;2023-03-16T19:54:33;101544.90;;;-1.18;100.00
44663;BME280;30381;52.754;18.258;2023-03-16T19:58:18;101547.81;;;-1.25;100.00
44663;BME280;30381;52.754;18.258;2023-03-16T20:29:48;101546.05;;;-1.53;100.00
44663;BME280;30381;52.754;18.258;2023-03-16T20:33:34;101545.34;;;-1.55;100.00
44663;BME280;30381;52.754;18.258;2023-03-16T20:40:21;101534.96;;;-1.64;100.00
44663;BME280;30381;52.754;18.258;2023-03-16T20:43:32;101533.27;;;-1.68;100.00
44663;BME280;30381;52.754;18.258;2023-03-16T20:46:09;101533.61;;;-1.70;100.00
44663;BME280;30381;52.754;18.258;2023-03-16T20:49:29;101530.46;;;-1.75;100.00
44663;BME280;30381;52.754;18.258;2023-03-16T20:52:12;101526.92;;;-1.79;100.00
44663;BME280;30381;52.754;18.258;2023-03-16T20:54:54;101528.05;;;-1.83;100.00
44663;BME280;30381;52.754;18.258;2023-03-16T20:58:28;101526.42;;;-1.87;100.00
44663;BME280;30381;52.754;18.258;2023-03-16T21:01:51;101526.19;;;-1.92;100.00
44663;BME280;30381;52.754;18.258;2023-03-16T21:05:13;101526.48;;;-1.98;100.00
44663;BME280;30381;52.754;18.258;2023-03-16T21:08:10;101529.80;;;-2.01;100.00
44663;BME280;30381;52.754;18.258;2023-03-16T21:11:29;101525.08;;;-2.06;100.00
44663;BME280;30381;52.754;18.258;2023-03-16T21:14:25;101528.84;;;-2.08;100.00
44663;BME280;30381;52.754;18.258;2023-03-16T21:19:46;101530.69;;;-2.11;100.00
44663;BME280;30381;52.754;18.258;2023-03-16T21:30:58;101535.05;;;-2.21;100.00
44663;BME280;30381;52.754;18.258;2023-03-16T21:39:31;101533.36;;;-2.32;100.00
44663;BME280;30381;52.754;18.258;2023-03-16T21:42:51;101536.55;;;-2.36;100.00
44663;BME280;30381;52.754;18.258;2023-03-16T21:54:45;101535.27;;;-2.40;100.00
44663;BME280;30381;52.754;18.258;2023-03-16T21:58:44;101526.70;;;-2.43;100.00
44663;BME280;30381;52.754;18.258;2023-03-16T22:02:29;101528.73;;;-2.46;100.00
44663;BME280;30381;52.754;18.258;2023-03-16T22:05:42;101530.64;;;-2.48;100.00
44663;BME280;30381;52.754;18.258;2023-03-16T22:14:16;101533.92;;;-2.55;100.00
44663;BME280;30381;52.754;18.258;2023-03-16T22:20:38;101541.89;;;-2.57;100.00
44663;BME280;30381;52.754;18.258;2023-03-16T22:24:41;101538.91;;;-2.62;100.00
44663;BME280;30381;52.754;18.258;2023-03-16T22:41:09;101544.69;;;-2.72;100.00
44663;BME280;30381;52.754;18.258;2023-03-16T22:50:14;101562.58;;;-2.77;100.00
44663;BME280;30381;52.754;18.258;2023-03-16T22:56:28;101572.09;;;-2.79;100.00
44663;BME280;30381;52.754;18.258;2023-03-16T23:37:39;101557.79;;;-2.74;100.00
